Time;durP1;ratioP1;P1;durP2;ratioP2;P2;SDS_P1;SDS_P2;PMS_P1;PMS_P2;Temp;Humidity;BMP_temperature;BMP_pressure;BME280_temperature;BME280_humidity;BME280_pressure;Samples;Min_cycle;Max_cycle;Signal;HPM_P1;HPM_P2
2022/06/28 00:01:30;;;;;;;0.20;0.20;;;;;;;16.17;97.79;100493.63;5145012;27;20023;-68
2022/06/28 00:03:56;;;;;;;0.55;0.55;;;;;;;16.11;98.21;100476.38;5144752;27;20097;-67
2022/06/28 00:06:21;;;;;;;0.20;0.20;;;;;;;16.18;97.69;100482.28;5145040;27;20083;-67
2022/06/28 00:08:47;;;;;;;0.20;0.20;;;;;;;16.17;98.16;100484.03;5144827;27;20046;-68
2022/06/28 00:11:12;;;;;;;0.20;0.20;;;;;;;16.26;98.24;100487.28;5144924;27;20015;-68
2022/06/28 00:13:37;;;;;;;0.20;0.20;;;;;;;16.27;98.35;100494.22;5143450;27;20130;-68
2022/06/28 00:16:06;;;;;;;0.20;0.20;;;;;;;16.26;98.37;100492.53;5144744;27;20169;-68
2022/06/28 00:18:40;;;;;;;0.20;0.20;;;;;;;16.18;98.22;100498.00;5144784;27;20114;-66
2022/06/28 00:21:06;;;;;;;0.20;0.20;;;;;;;16.19;97.90;100486.59;5144455;27;20027;-66
2022/06/28 00:23:32;;;;;;;0.20;0.20;;;;;;;16.23;97.77;100480.34;5144659;27;20027;-67
2022/06/28 00:25:57;;;;;;;0.20;0.20;;;;;;;16.18;98.09;100469.19;5144629;27;20022;-65
2022/06/28 00:28:23;;;;;;;4.03;1.35;;;;;;;16.16;97.94;100458.75;5144567;27;20038;-66
2022/06/28 00:30:48;;;;;;;0.30;0.30;;;;;;;16.18;97.98;100458.72;5143087;27;20034;-66
2022/06/28 00:33:14;;;;;;;0.20;0.20;;;;;;;16.06;98.29;100463.41;5144438;27;20106;-66
2022/06/28 00:35:39;;;;;;;0.20;0.20;;;;;;;16.04;98.39;100461.75;5144271;28;20047;-66
2022/06/28 00:38:05;;;;;;;0.20;0.20;;;;;;;16.04;98.65;100467.00;5144563;28;20038;-66
2022/06/28 00:40:31;;;;;;;0.55;0.50;;;;;;;16.05;98.72;100459.09;5144422;28;20473;-66
2022/06/28 00:42:57;;;;;;;0.20;0.20;;;;;;;16.08;98.58;100455.50;5144336;28;20079;-67
2022/06/28 00:45:22;;;;;;;0.50;0.50;;;;;;;16.04;99.24;100462.59;5143001;28;20026;-66
2022/06/28 00:47:48;;;;;;;0.20;0.20;;;;;;;16.03;98.77;100444.31;5142960;28;20023;-67
2022/06/28 00:50:14;;;;;;;0.90;0.90;;;;;;;16.03;99.05;100432.09;5144124;28;20027;-67
2022/06/28 00:53:03;;;;;;;0.20;0.20;;;;;;;16.03;99.40;100433.84;5144374;28;20026;-67
2022/06/28 00:55:29;;;;;;;0.32;0.32;;;;;;;16.06;99.06;100445.09;5144365;28;20072;-66
2022/06/28 00:57:54;;;;;;;0.20;0.20;;;;;;;16.09;99.46;100454.59;5144189;28;20027;-67
2022/06/28 01:00:20;;;;;;;0.20;0.20;;;;;;;16.14;99.44;100454.47;5144393;28;20333;-66
2022/06/28 01:02:45;;;;;;;1.23;1.13;;;;;;;16.12;99.66;100449.25;5144489;28;20424;-67
2022/06/28 01:05:10;;;;;;;0.20;0.20;;;;;;;16.16;99.84;100460.50;5144094;28;20011;-67
2022/06/28 01:07:36;;;;;;;0.20;0.20;;;;;;;16.18;99.82;100464.78;5144457;28;20019;-67
2022/06/28 01:10:01;;;;;;;0.73;0.73;;;;;;;16.28;99.75;100465.34;5144196;28;20027;-67
2022/06/28 01:12:27;;;;;;;0.20;0.20;;;;;;;16.26;99.79;100479.41;5125753;28;20034;-67
2022/06/28 01:14:52;;;;;;;0.20;0.20;;;;;;;16.25;99.51;100473.31;5142598;27;20106;-67
2022/06/28 01:17:17;;;;;;;0.30;0.30;;;;;;;16.27;99.77;100475.88;5147919;27;20027;-66
2022/06/28 01:19:43;;;;;;;1.00;1.00;;;;;;;16.29;99.51;100476.72;5147980;27;20022;-66
2022/06/28 01:22:10;;;;;;;0.20;0.20;;;;;;;16.29;99.71;100482.81;5148236;27;20019;-66
2022/06/28 01:24:36;;;;;;;0.20;0.20;;;;;;;16.27;99.81;100481.13;5148144;27;20018;-68
2022/06/28 01:27:01;;;;;;;0.20;0.20;;;;;;;16.27;99.96;100478.50;5147935;27;20027;-67
2022/06/28 01:29:28;;;;;;;0.20;0.20;;;;;;;16.28;99.71;100475.00;5147845;27;20051;-66
2022/06/28 01:31:53;;;;;;;0.20;0.20;;;;;;;16.21;99.62;100459.44;5147765;27;20478;-67
2022/06/28 01:34:20;;;;;;;0.20;0.20;;;;;;;16.16;100.00;100456.13;5147443;27;20039;-67
2022/06/28 01:36:46;;;;;;;0.20;0.20;;;;;;;16.15;100.00;100466.66;5147843;27;20473;-68
2022/06/28 01:39:12;;;;;;;0.50;0.50;;;;;;;16.17;100.00;100470.94;5147813;27;20046;-67
2022/06/28 01:41:38;;;;;;;0.20;0.20;;;;;;;16.24;100.00;100463.75;5147588;27;20030;-67
2022/06/28 01:44:06;;;;;;;3.40;2.08;;;;;;;16.29;100.00;100474.97;5147610;27;20011;-67
2022/06/28 01:46:35;;;;;;;0.20;0.20;;;;;;;16.27;100.00;100474.13;5147540;27;20518;-66
2022/06/28 01:49:01;;;;;;;0.20;0.20;;;;;;;16.30;100.00;100494.13;5147485;27;20035;-67
2022/06/28 01:51:26;;;;;;;0.20;0.20;;;;;;;16.21;100.00;100485.66;5147578;27;20019;-67
2022/06/28 01:53:52;;;;;;;0.20;0.20;;;;;;;16.27;100.00;100492.47;5147323;27;20092;-67
2022/06/28 01:56:17;;;;;;;0.20;0.20;;;;;;;16.09;99.76;100465.94;5147605;27;20041;-66
2022/06/28 01:58:43;;;;;;;0.20;0.20;;;;;;;16.06;99.54;100476.50;5147424;27;20015;-67
2022/06/28 02:01:09;;;;;;;0.20;0.20;;;;;;;15.91;99.68;100477.78;5147330;27;20066;-67
2022/06/28 02:03:34;;;;;;;0.20;0.20;;;;;;;15.83;99.74;100471.94;5147414;27;20023;-66
2022/06/28 02:05:59;;;;;;;0.20;0.20;;;;;;;15.79;99.89;100481.63;5147132;27;20079;-66
2022/06/28 02:08:25;;;;;;;0.20;0.20;;;;;;;15.69;100.00;100493.25;5147106;27;20023;-67
2022/06/28 02:10:50;;;;;;;0.20;0.20;;;;;;;15.59;100.00;100498.75;5147295;27;20082;-66
2022/06/28 02:13:16;;;;;;;0.20;0.20;;;;;;;15.56;99.30;100509.31;5146998;27;20033;-66
2022/06/28 02:15:41;;;;;;;0.20;0.20;;;;;;;15.49;100.00;100513.00;5146894;27;20023;-67
2022/06/28 02:18:07;;;;;;;0.20;0.20;;;;;;;15.46;100.00;100506.06;5146923;27;20018;-68
2022/06/28 02:20:33;;;;;;;0.20;0.20;;;;;;;15.43;100.00;100513.19;5146698;27;20481;-67
2022/06/28 02:22:59;;;;;;;0.20;0.20;;;;;;;15.40;100.00;100523.72;5146997;27;20042;-68
2022/06/28 02:25:24;;;;;;;0.20;0.20;;;;;;;15.44;100.00;100531.44;5147027;27;20537;-69
2022/06/28 02:27:51;;;;;;;0.20;0.20;;;;;;;15.46;100.00;100523.56;5145494;27;20019;-69
2022/06/28 02:30:17;;;;;;;0.20;0.20;;;;;;;15.49;100.00;100518.22;5146543;27;20023;-69
2022/06/28 02:32:42;;;;;;;0.20;0.20;;;;;;;15.46;100.00;100516.53;5146662;27;20022;-69
2022/06/28 02:40:36;;;;;;;0.20;0.20;;;;;;;15.50;100.00;100496.41;5146631;27;20034;-70
2022/06/28 02:43:01;;;;;;;0.22;0.22;;;;;;;15.51;100.00;100499.88;5146454;27;20423;-70
2022/06/28 02:45:29;;;;;;;0.20;0.20;;;;;;;15.49;100.00;100502.53;5146331;27;20015;-71
2022/06/28 02:47:55;;;;;;;0.20;0.20;;;;;;;15.50;99.96;100514.72;5146159;27;20027;-70
2022/06/28 02:50:21;;;;;;;0.20;0.20;;;;;;;15.48;99.98;100521.72;5146150;27;20087;-70
2022/06/28 02:52:47;;;;;;;0.20;0.20;;;;;;;15.49;100.00;100540.00;5146304;27;20023;-70
2022/06/28 02:55:12;;;;;;;0.20;0.20;;;;;;;15.52;99.85;100539.09;5146201;27;20470;-70
2022/06/28 02:57:39;;;;;;;0.20;0.20;;;;;;;15.54;99.81;100550.38;5146254;27;20031;-71
2022/06/28 03:00:08;;;;;;;0.20;0.20;;;;;;;15.57;99.84;100560.75;5145948;27;20407;-70
2022/06/28 03:02:39;;;;;;;0.20;0.20;;;;;;;15.56;99.61;100551.16;5146000;27;20458;-70
2022/06/28 03:05:10;;;;;;;0.20;0.20;;;;;;;15.54;100.00;100550.38;5146133;27;20023;-70
2022/06/28 03:07:36;;;;;;;1.48;0.55;;;;;;;15.59;100.00;100551.09;5146085;27;20031;-70
2022/06/28 03:10:02;;;;;;;0.20;0.20;;;;;;;15.59;99.88;100556.31;5145759;27;20086;-69
2022/06/28 03:12:27;;;;;;;0.40;0.40;;;;;;;15.68;99.90;100570.06;5145866;27;20049;-68
2022/06/28 03:14:53;;;;;;;0.20;0.20;;;;;;;15.68;99.88;100591.88;5145848;27;20095;-69
2022/06/28 03:17:19;;;;;;;0.20;0.20;;;;;;;15.66;100.00;100605.88;5145899;27;20079;-69
2022/06/28 03:19:44;;;;;;;0.20;0.20;;;;;;;15.63;99.77;100595.50;5145648;27;20086;-69
2022/06/28 03:22:09;;;;;;;0.20;0.20;;;;;;;15.67;99.18;100602.38;5145776;27;20050;-69
2022/06/28 03:24:35;;;;;;;0.20;0.20;;;;;;;15.59;99.40;100603.41;5145585;27;20015;-69
2022/06/28 03:27:00;;;;;;;1.08;1.00;;;;;;;15.59;99.81;100603.41;5145544;27;20027;-69
2022/06/28 03:29:25;;;;;;;0.20;0.20;;;;;;;15.64;99.47;100597.22;5145675;27;20082;-70
2022/06/28 03:31:51;;;;;;;0.20;0.20;;;;;;;15.53;99.54;100597.50;5145436;27;20385;-70
2022/06/28 03:34:17;;;;;;;0.35;0.35;;;;;;;15.58;99.09;100586.00;5143599;27;20047;-69
2022/06/28 03:36:43;;;;;;;0.20;0.20;;;;;;;15.49;98.96;100581.03;5126867;27;20338;-69
2022/06/28 03:39:08;;;;;;;0.82;0.82;;;;;;;15.49;99.35;100607.19;5145181;27;20025;-70
2022/06/28 03:41:34;;;;;;;0.25;0.25;;;;;;;15.54;98.97;100605.31;5145436;27;20524;-70
2022/06/28 03:43:59;;;;;;;0.20;0.20;;;;;;;15.50;98.93;100608.91;5145230;27;20100;-70
2022/06/28 03:46:24;;;;;;;0.38;0.38;;;;;;;15.52;98.49;100603.63;5145200;27;20049;-69
2022/06/28 03:48:50;;;;;;;0.32;0.32;;;;;;;15.52;99.22;100617.56;5145148;27;20019;-70
2022/06/28 03:51:15;;;;;;;0.20;0.20;;;;;;;15.52;99.15;100620.19;5144952;27;20142;-70
2022/06/28 03:53:41;;;;;;;0.20;0.20;;;;;;;15.53;98.76;100627.13;5145075;27;20019;-70
2022/06/28 03:56:07;;;;;;;0.20;0.20;;;;;;;15.49;98.92;100628.13;5144986;27;20117;-70
2022/06/28 03:58:33;;;;;;;0.20;0.20;;;;;;;15.49;99.05;100622.88;5145014;27;20033;-71
2022/06/28 04:00:59;;;;;;;0.45;0.45;;;;;;;15.46;99.64;100628.19;5144999;27;20419;-71
2022/06/28 04:03:24;;;;;;;0.20;0.20;;;;;;;15.47;99.31;100627.28;5144794;27;20027;-71
2022/06/28 04:05:50;;;;;;;0.30;0.30;;;;;;;15.49;98.91;100623.72;5144809;27;20037;-71
2022/06/28 04:08:15;;;;;;;0.20;0.20;;;;;;;15.49;98.84;100623.72;5144876;27;20041;-71
2022/06/28 04:10:41;;;;;;;0.20;0.20;;;;;;;15.49;98.82;100628.13;5144715;27;20184;-72
2022/06/28 04:13:06;;;;;;;0.20;0.20;;;;;;;15.47;98.77;100640.38;5144798;27;20424;-71
2022/06/28 04:15:32;;;;;;;0.20;0.20;;;;;;;15.44;98.48;100630.00;5144688;27;20244;-71
2022/06/28 04:17:57;;;;;;;0.20;0.20;;;;;;;15.43;98.34;100644.81;5145051;27;20040;-71
2022/06/28 04:20:23;;;;;;;0.20;0.20;;;;;;;15.43;98.47;100646.59;5144706;27;20030;-71
2022/06/28 04:22:50;;;;;;;0.75;0.75;;;;;;;15.40;98.91;100639.66;5144709;27;20457;-71
2022/06/28 04:25:15;;;;;;;0.20;0.20;;;;;;;15.38;98.90;100640.59;5144634;27;20015;-71
2022/06/28 04:27:40;;;;;;;0.20;0.20;;;;;;;15.38;98.94;100640.59;5144636;27;20020;-72
2022/06/28 04:30:06;;;;;;;0.20;0.20;;;;;;;15.42;98.45;100652.69;5144371;27;20023;-72
2022/06/28 04:32:32;;;;;;;0.30;0.30;;;;;;;15.43;97.82;100647.44;5143142;27;20458;-72
2022/06/28 04:34:57;;;;;;;0.20;0.20;;;;;;;15.44;98.18;100657.03;5144277;27;20171;-69
2022/06/28 04:37:23;;;;;;;0.20;0.20;;;;;;;15.40;98.83;100662.38;5144529;28;20034;-71
2022/06/28 04:39:48;;;;;;;0.20;0.20;;;;;;;15.40;98.41;100665.81;5144408;28;20015;-71
2022/06/28 04:42:13;;;;;;;0.20;0.20;;;;;;;15.44;98.73;100674.47;5144404;28;20493;-71
2022/06/28 04:44:39;;;;;;;0.20;0.20;;;;;;;15.50;98.71;100671.69;5144710;28;20015;-71
2022/06/28 04:47:05;;;;;;;0.20;0.20;;;;;;;15.49;98.82;100669.97;5144701;28;20030;-71
2022/06/28 04:49:30;;;;;;;0.30;0.30;;;;;;;15.50;98.79;100690.00;5144373;27;20160;-71
2022/06/28 04:51:56;;;;;;;0.20;0.20;;;;;;;15.53;98.83;100708.25;5129419;27;20015;-71
2022/06/28 04:54:21;;;;;;;0.40;0.40;;;;;;;15.57;98.80;100717.75;5147206;27;20031;-72
2022/06/28 04:56:47;;;;;;;1.02;0.93;;;;;;;15.57;98.72;100722.13;5148678;27;20022;-72
2022/06/28 04:59:13;;;;;;;0.20;0.20;;;;;;;15.60;98.40;100706.34;5148467;27;20038;-72
2022/06/28 05:01:38;;;;;;;0.20;0.20;;;;;;;15.56;98.78;100692.47;5148464;27;20030;-74
2022/06/28 05:04:03;;;;;;;0.20;0.20;;;;;;;15.66;97.87;100689.63;5148458;27;20514;-71
2022/06/28 05:06:29;;;;;;;0.20;0.20;;;;;;;15.59;97.35;100695.00;5148406;27;20015;-71
2022/06/28 05:08:56;;;;;;;1.38;1.30;;;;;;;15.60;97.69;100694.13;5148044;27;20024;-70
2022/06/28 05:11:22;;;;;;;0.30;0.30;;;;;;;15.57;97.54;100678.50;5148352;27;20025;-72
2022/06/28 05:13:47;;;;;;;1.52;1.45;;;;;;;15.59;97.86;100686.31;5129708;27;20034;-72
2022/06/28 05:16:13;;;;;;;0.20;0.20;;;;;;;15.60;98.20;100690.66;5148145;27;20158;-72
2022/06/28 05:18:38;;;;;;;0.20;0.20;;;;;;;15.56;98.62;100682.00;5148321;27;20020;-71
2022/06/28 05:21:04;;;;;;;0.32;0.32;;;;;;;15.70;98.03;100686.03;5147861;27;20029;-72
2022/06/28 05:23:29;;;;;;;0.90;0.90;;;;;;;15.79;98.03;100696.28;5147754;27;20023;-72
2022/06/28 05:25:55;;;;;;;0.20;0.20;;;;;;;15.77;98.22;100708.53;5148176;27;20070;-72
2022/06/28 05:28:20;;;;;;;0.65;0.65;;;;;;;15.81;98.07;100717.19;5146545;27;20015;-72
2022/06/28 05:30:46;;;;;;;0.20;0.20;;;;;;;15.85;97.97;100703.09;5147878;27;20027;-72
2022/06/28 05:33:11;;;;;;;1.10;1.10;;;;;;;15.84;98.05;100709.25;5147702;27;20477;-71
2022/06/28 05:35:36;;;;;;;0.20;0.20;;;;;;;15.85;98.27;100714.44;5147457;27;20047;-72
2022/06/28 05:38:02;;;;;;;0.30;0.30;;;;;;;15.89;98.13;100709.13;5147787;27;20019;-72
2022/06/28 05:40:28;;;;;;;0.20;0.20;;;;;;;15.90;98.34;100713.44;5147679;27;20084;-72
2022/06/28 05:42:54;;;;;;;0.20;0.20;;;;;;;15.90;98.21;100713.44;5147318;27;20458;-73
2022/06/28 05:45:19;;;;;;;5.68;1.10;;;;;;;15.93;98.54;100726.47;5147742;27;20023;-72
2022/06/28 05:47:45;;;;;;;1.85;1.75;;;;;;;15.99;97.86;100736.81;5147730;27;20083;-71
2022/06/28 05:50:11;;;;;;;0.85;0.85;;;;;;;16.00;98.17;100733.31;5147483;27;20530;-70
2022/06/28 05:52:36;;;;;;;0.20;0.20;;;;;;;16.03;97.79;100754.19;5146218;27;20245;-71
2022/06/28 05:55:02;;;;;;;2.65;1.27;;;;;;;16.07;97.98;100749.72;5147439;27;20030;-71
2022/06/28 05:57:27;;;;;;;0.68;0.68;;;;;;;16.15;97.85;100752.13;5147592;27;20114;-72
2022/06/28 05:59:53;;;;;;;0.30;0.30;;;;;;;16.22;97.72;100753.69;5147539;27;20023;-73
2022/06/28 06:02:18;;;;;;;0.20;0.20;;;;;;;16.23;97.60;100752.78;5147091;27;20065;-71
2022/06/28 06:04:44;;;;;;;0.20;0.20;;;;;;;16.21;97.31;100762.47;5147251;27;20015;-71
2022/06/28 06:07:09;;;;;;;0.20;0.20;;;;;;;16.21;97.54;100763.28;5147246;27;20045;-71
2022/06/28 06:09:36;;;;;;;0.30;0.30;;;;;;;16.22;97.46;100764.16;5146999;27;20023;-72
2022/06/28 06:12:03;;;;;;;0.82;0.82;;;;;;;16.26;97.88;100776.31;5147120;27;20073;-72
2022/06/28 06:14:28;;;;;;;0.20;0.20;;;;;;;16.29;97.86;100768.34;5147293;27;20019;-71
2022/06/28 06:16:54;;;;;;;0.20;0.20;;;;;;;16.30;98.19;100759.59;5147369;27;20019;-71
2022/06/28 06:19:19;;;;;;;0.20;0.20;;;;;;;16.34;98.03;100768.22;5145654;27;20106;-69
2022/06/28 06:21:45;;;;;;;0.60;0.60;;;;;;;16.23;97.25;100776.34;5147020;27;20030;-72
2022/06/28 06:24:11;;;;;;;0.20;0.20;;;;;;;16.34;97.06;100769.06;5147084;27;20026;-71
2022/06/28 06:26:36;;;;;;;0.20;0.20;;;;;;;16.34;97.29;100771.69;5147084;27;20019;-72
2022/06/28 06:29:02;;;;;;;0.20;0.20;;;;;;;16.31;96.85;100777.00;5146811;27;20023;-71
2022/06/28 06:31:28;;;;;;;0.30;0.30;;;;;;;16.31;96.62;100771.78;5146979;27;20023;-72
2022/06/28 06:33:53;;;;;;;0.20;0.20;;;;;;;16.31;95.61;100777.00;5146557;27;20058;-72
2022/06/28 06:36:19;;;;;;;0.20;0.20;;;;;;;16.29;96.41;100773.59;5146592;27;20070;-74
2022/06/28 06:38:44;;;;;;;1.33;1.33;;;;;;;16.27;95.90;100778.00;5146944;27;20023;-74
2022/06/28 06:41:10;;;;;;;0.20;0.20;;;;;;;16.22;95.81;100764.16;5146748;27;20077;-73
2022/06/28 06:43:35;;;;;;;0.20;0.20;;;;;;;16.24;96.32;100772.84;5145394;27;20026;-74
2022/06/28 06:46:00;;;;;;;0.20;0.20;;;;;;;16.25;95.99;100779.78;5146758;27;20019;-74
2022/06/28 06:48:26;;;;;;;0.20;0.20;;;;;;;16.19;95.46;100772.97;5146697;27;20428;-72
2022/06/28 06:50:51;;;;;;;0.20;0.20;;;;;;;16.16;95.97;100780.03;5146386;27;20019;-72
2022/06/28 06:53:19;;;;;;;0.35;0.35;;;;;;;16.10;96.34;100775.84;5146453;27;20035;-70
2022/06/28 06:55:46;;;;;;;0.20;0.20;;;;;;;16.07;96.07;100775.91;5146429;27;20044;-70
2022/06/28 06:58:12;;;;;;;0.20;0.20;;;;;;;16.04;95.99;100774.22;5146432;27;20019;-70
2022/06/28 07:00:37;;;;;;;0.20;0.20;;;;;;;16.08;95.90;100768.03;5146187;27;20033;-71
2022/06/28 07:03:02;;;;;;;0.20;0.20;;;;;;;16.08;95.76;100764.53;5146310;27;20019;-71
2022/06/28 07:05:30;;;;;;;0.30;0.30;;;;;;;16.06;96.01;100767.19;5146130;27;20043;-70
2022/06/28 07:07:55;;;;;;;0.20;0.20;;;;;;;16.08;96.55;100783.72;5127546;27;20052;-71
2022/06/28 07:10:20;;;;;;;0.20;0.20;;;;;;;16.21;96.35;100783.41;5146071;27;20086;-72
2022/06/28 07:12:46;;;;;;;0.20;0.20;;;;;;;16.27;96.72;100777.13;5144291;27;20023;-72
2022/06/28 07:15:11;;;;;;;0.13;0.13;;;;;;;16.36;96.55;100776.88;5145781;27;20575;-72
2022/06/28 07:17:37;;;;;;;0.28;0.28;;;;;;;16.44;96.05;100779.28;5145881;27;20113;-72
2022/06/28 07:20:02;;;;;;;0.20;0.20;;;;;;;16.50;96.69;100787.03;5145826;27;20027;-71
2022/06/28 07:22:28;;;;;;;0.20;0.20;;;;;;;16.56;97.00;100789.47;5145922;27;20076;-71
2022/06/28 07:24:53;;;;;;;0.20;0.20;;;;;;;16.71;96.63;100787.31;5145789;27;20024;-73
2022/06/28 07:27:20;;;;;;;0.77;0.77;;;;;;;16.81;96.72;100793.16;5145869;27;20060;-73
2022/06/28 07:29:45;;;;;;;3.03;1.85;;;;;;;16.83;96.46;100800.09;5144452;27;20019;-75
2022/06/28 07:32:11;;;;;;;0.20;0.20;;;;;;;16.84;96.23;100793.94;5146161;27;20015;-74
2022/06/28 07:34:36;;;;;;;0.75;0.75;;;;;;;16.84;96.42;100793.94;5145435;27;20471;-74
2022/06/28 07:37:01;;;;;;;0.20;0.20;;;;;;;16.92;95.81;100782.34;5145742;27;20027;-73
2022/06/28 07:39:27;;;;;;;0.35;0.35;;;;;;;16.97;94.58;100796.19;5145636;27;20019;-72
2022/06/28 07:41:53;;;;;;;0.20;0.20;;;;;;;16.92;94.29;100801.56;5145683;27;20030;-73
2022/06/28 07:44:19;;;;;;;0.30;0.30;;;;;;;16.94;94.52;100801.53;5145572;27;20039;-73
2022/06/28 07:46:45;;;;;;;0.20;0.20;;;;;;;17.06;94.46;100803.78;5145429;27;20076;-72
2022/06/28 07:49:10;;;;;;;0.50;0.50;;;;;;;17.19;95.65;100790.34;5145474;27;20030;-72
2022/06/28 07:54:20;;;;;;;0.30;0.30;;;;;;;17.44;94.33;100800.09;5145280;27;20057;-71
2022/06/28 07:56:46;;;;;;;0.20;0.20;;;;;;;17.64;94.33;100803.84;5145311;27;20027;-72
2022/06/28 07:59:11;;;;;;;0.20;0.20;;;;;;;17.83;94.35;100819.88;5143785;27;20015;-72
2022/06/28 08:01:36;;;;;;;0.20;0.20;;;;;;;17.98;93.61;100809.78;5145229;27;20023;-72
2022/06/28 08:04:02;;;;;;;0.20;0.20;;;;;;;18.05;93.32;100813.94;5145221;27;20354;-72
2022/06/28 08:06:27;;;;;;;0.60;0.60;;;;;;;18.23;95.13;100817.72;5144962;27;20019;-73
2022/06/28 08:08:53;;;;;;;0.20;0.20;;;;;;;18.65;95.64;100821.53;5144899;27;20027;-72
2022/06/28 08:11:18;;;;;;;0.30;0.30;;;;;;;19.16;93.19;100824.13;5144711;27;20023;-73
2022/06/28 08:13:46;;;;;;;0.20;0.20;;;;;;;20.01;95.64;100821.69;5144894;27;20079;-72
2022/06/28 08:16:11;;;;;;;0.20;0.20;;;;;;;20.79;92.70;100812.25;5145016;27;20023;-74
2022/06/28 08:18:36;;;;;;;0.65;0.65;;;;;;;21.16;90.37;100821.16;5145050;27;20023;-73
2022/06/28 08:21:02;;;;;;;0.10;0.10;;;;;;;21.40;88.90;100827.97;5144610;27;20044;-73
2022/06/28 08:23:27;;;;;;;2.28;2.17;;;;;;;21.38;87.97;100837.75;5148749;22;20059;-68
2022/06/28 08:25:53;;;;;;;0.55;0.55;;;;;;;21.08;87.06;100830.34;5141450;27;20103;-68
2022/06/28 08:28:18;;;;;;;0.10;0.10;;;;;;;20.96;84.22;100823.84;5124741;27;20363;-68
2022/06/28 08:30:44;;;;;;;0.88;0.57;;;;;;;20.83;84.89;100823.53;5143448;27;20046;-68
2022/06/28 08:33:10;;;;;;;0.20;0.20;;;;;;;20.88;85.12;100832.91;5143261;27;20532;-68
2022/06/28 08:35:35;;;;;;;2.03;1.85;;;;;;;21.34;83.86;100836.19;5142979;27;20030;-67
2022/06/28 08:38:06;;;;;;;0.20;0.20;;;;;;;21.50;84.68;100833.69;5143138;28;20038;-68
2022/06/28 08:40:35;;;;;;;0.20;0.20;;;;;;;21.73;84.31;100832.56;5143591;28;20569;-69
2022/06/28 08:43:01;;;;;;;0.20;0.20;;;;;;;22.19;81.93;100838.31;5143329;28;20377;-67
2022/06/28 08:45:27;;;;;;;0.50;0.50;;;;;;;22.86;81.81;100840.19;5144090;28;20234;-68
2022/06/28 08:47:57;;;;;;;0.20;0.20;;;;;;;23.69;81.46;100833.91;5144597;28;20529;-69
2022/06/28 08:50:31;;;;;;;0.20;0.20;;;;;;;24.30;75.30;100843.69;5144393;28;20038;-68
2022/06/28 08:53:00;;;;;;;0.32;0.32;;;;;;;24.72;71.64;100841.19;5143309;28;20038;-68
2022/06/28 08:55:26;;;;;;;0.10;0.10;;;;;;;25.64;72.99;100845.25;5144323;28;20223;-69
2022/06/28 08:57:53;;;;;;;0.30;0.30;;;;;;;26.22;69.05;100844.09;5144181;28;20023;-69
2022/06/28 09:00:19;;;;;;;10.95;3.95;;;;;;;27.06;65.55;100853.50;5125318;28;20023;-69
2022/06/28 09:02:46;;;;;;;8.35;2.65;;;;;;;27.56;62.95;100849.91;5125525;28;20016;-69
2022/06/28 09:05:11;;;;;;;7.97;2.45;;;;;;;27.86;60.58;100851.28;5143744;28;20019;-68
2022/06/28 09:07:37;;;;;;;10.30;2.85;;;;;;;27.50;56.94;100861.91;5144157;28;20057;-69
2022/06/28 09:10:02;;;;;;;12.07;3.05;;;;;;;27.60;59.25;100862.91;5144156;28;20020;-69
2022/06/28 09:12:28;;;;;;;11.48;3.35;;;;;;;27.91;55.66;100857.13;5144397;28;20019;-69
2022/06/28 09:14:53;;;;;;;9.88;2.97;;;;;;;28.54;56.76;100855.13;5144114;28;20087;-69
2022/06/28 09:17:29;;;;;;;8.70;2.55;;;;;;;29.18;54.08;100868.88;5144215;28;20088;-69
2022/06/28 09:20:00;;;;;;;11.70;2.45;;;;;;;29.66;51.72;100862.34;5144013;28;20019;-68
2022/06/28 09:22:40;;;;;;;8.43;3.08;;;;;;;29.80;50.77;100865.66;5143948;28;20026;-68
2022/06/28 09:25:13;;;;;;;7.85;2.15;;;;;;;29.94;49.26;100857.34;5144209;28;20026;-68
2022/06/28 09:27:40;;;;;;;8.45;2.35;;;;;;;29.65;48.25;100874.00;5144146;28;20030;-69
2022/06/28 09:30:11;;;;;;;7.47;2.40;;;;;;;29.74;49.91;100867.03;5144227;28;20023;-70
2022/06/28 09:32:38;;;;;;;6.70;2.15;;;;;;;29.79;49.33;100867.50;5144033;28;20019;-70
2022/06/28 09:35:09;;;;;;;7.00;2.28;;;;;;;30.03;50.43;100862.91;5143647;28;20070;-69
2022/06/28 09:37:56;;;;;;;8.65;2.38;;;;;;;30.24;49.17;100856.72;5146533;27;20023;-70
2022/06/28 09:40:23;;;;;;;4.95;1.83;;;;;;;30.30;46.40;100859.69;5147884;27;20117;-69
2022/06/28 09:43:04;;;;;;;5.10;1.83;;;;;;;30.23;47.27;100863.91;5147895;27;20106;-69
2022/06/28 09:45:29;;;;;;;9.52;1.98;;;;;;;30.16;45.19;100866.22;5147964;27;20027;-69
2022/06/28 09:47:55;;;;;;;6.65;1.90;;;;;;;29.92;43.69;100870.00;5147563;27;20058;-70
2022/06/28 09:50:21;;;;;;;6.60;2.13;;;;;;;29.81;44.04;100868.22;5147522;27;20429;-68
2022/06/28 09:52:47;;;;;;;7.20;2.88;;;;;;;29.91;45.80;100870.13;5129093;27;20015;-69
2022/06/28 09:55:15;;;;;;;9.02;2.15;;;;;;;29.76;45.06;100862.41;5147481;27;20023;-69
2022/06/28 09:57:44;;;;;;;6.65;2.03;;;;;;;29.32;45.38;100855.22;5147419;27;20031;-69
2022/06/28 10:00:11;;;;;;;8.23;1.90;;;;;;;28.95;46.58;100869.75;5147543;27;20011;-69
2022/06/28 10:02:36;;;;;;;7.43;2.38;;;;;;;28.91;46.36;100870.94;5147388;27;20027;-68
2022/06/28 10:05:02;;;;;;;6.20;2.20;;;;;;;29.01;46.32;100872.91;5147152;27;20034;-68
2022/06/28 10:07:31;;;;;;;6.40;2.17;;;;;;;29.31;46.15;100877.56;5147333;27;20073;-68
2022/06/28 10:09:57;;;;;;;8.02;2.33;;;;;;;29.80;45.78;100879.91;5147307;27;20079;-68
2022/06/28 10:15:08;;;;;;;7.55;1.88;;;;;;;29.94;43.26;100878.75;5147041;27;20030;-69
2022/06/28 10:17:42;;;;;;;8.70;2.15;;;;;;;29.95;45.76;100884.97;5147127;27;20022;-69
2022/06/28 10:20:11;;;;;;;8.60;2.25;;;;;;;30.09;45.46;100883.78;5147146;27;20027;-69
2022/06/28 10:22:36;;;;;;;8.68;2.05;;;;;;;30.09;44.30;100877.56;5128686;27;20035;-69
2022/06/28 10:25:03;;;;;;;10.40;2.63;;;;;;;29.97;44.40;100892.84;5147109;27;20015;-68
2022/06/28 10:27:29;;;;;;;7.55;2.13;;;;;;;29.96;43.66;100886.66;5146798;27;20023;-69
2022/06/28 10:29:57;;;;;;;10.88;1.92;;;;;;;30.14;45.16;100888.75;5146903;27;20023;-69
2022/06/28 10:32:43;;;;;;;7.25;2.35;;;;;;;29.96;44.93;100900.03;5146922;27;20055;-70
2022/06/28 10:35:09;;;;;;;5.82;1.70;;;;;;;30.05;43.22;100901.94;5146886;27;20035;-69
2022/06/28 10:37:35;;;;;;;5.75;1.60;;;;;;;29.92;43.95;100902.09;5146599;27;20025;-69
2022/06/28 10:40:37;;;;;;;7.53;2.28;;;;;;;29.55;46.09;100908.63;5146754;27;20050;-69
2022/06/28 10:43:02;;;;;;;6.97;1.83;;;;;;;29.32;43.83;100907.84;5124038;27;20031;-69
2022/06/28 10:46:00;;;;;;;7.13;2.08;;;;;;;29.18;42.69;100906.28;5146605;27;20030;-69
2022/06/28 10:48:29;;;;;;;7.60;2.20;;;;;;;28.88;42.10;100905.06;5145440;27;20046;-69
2022/06/28 10:50:56;;;;;;;13.38;2.13;;;;;;;28.89;44.84;100912.94;5146161;27;20022;-69
2022/06/28 10:53:22;;;;;;;4.97;1.98;;;;;;;28.96;42.05;100913.34;5146540;27;20107;-69
2022/06/28 10:56:09;;;;;;;8.52;2.28;;;;;;;28.90;43.65;100917.31;5146522;27;20027;-69
2022/06/28 10:59:25;;;;;;;5.43;1.73;;;;;;;28.89;44.00;100912.94;5146367;27;20022;-69
2022/06/28 11:01:50;;;;;;;9.18;2.78;;;;;;;28.43;44.26;100917.38;5104557;27;20031;-69
2022/06/28 11:04:18;;;;;;;7.10;2.28;;;;;;;27.63;45.09;100917.84;5146378;27;20090;-69
2022/06/28 11:06:48;;;;;;;8.88;2.65;;;;;;;26.83;46.07;100923.41;5145720;27;20097;-69
2022/06/28 11:09:38;;;;;;;5.68;1.83;;;;;;;26.14;48.66;100929.78;5146047;27;20023;-69
2022/06/28 11:12:24;;;;;;;8.75;2.33;;;;;;;25.46;49.17;100938.47;5146104;27;20474;-69
2022/06/28 11:14:51;;;;;;;8.30;2.70;;;;;;;24.80;50.19;100925.66;5146116;27;20314;-69
2022/06/28 11:17:19;;;;;;;7.53;2.30;;;;;;;24.39;51.80;100933.34;5145889;27;20026;-69
2022/06/28 11:19:56;;;;;;;7.30;2.17;;;;;;;24.02;52.61;100940.78;5145537;27;20023;-67
2022/06/28 11:22:31;;;;;;;7.65;2.70;;;;;;;23.62;54.17;100954.47;5145913;27;20027;-68
2022/06/28 11:24:59;;;;;;;13.15;2.65;;;;;;;23.33;53.54;100949.78;5145878;27;20343;-68
2022/06/28 11:27:25;;;;;;;12.63;2.55;;;;;;;23.02;54.58;100946.97;5145593;27;20027;-69
2022/06/28 11:29:54;;;;;;;10.15;2.75;;;;;;;22.76;55.73;100958.94;5145675;27;20022;-68
2022/06/28 11:32:29;;;;;;;10.05;2.20;;;;;;;22.46;55.17;100948.94;5145564;27;20031;-68
2022/06/28 11:35:16;;;;;;;4.40;1.95;;;;;;;22.21;55.78;100961.56;5145436;27;20023;-69